Time;durP1;ratioP1;P1;durP2;ratioP2;P2;SDS_P1;SDS_P2;PMS_P1;PMS_P2;Temp;Humidity;BMP_temperature;BMP_pressure;BME280_temperature;BME280_humidity;BME280_pressure;Samples;Min_cycle;Max_cycle;Signal;HPM_P1;HPM_P2
2022/12/14 00:02:06;;;;;;;21.30;12.17;;;;;;;;;;5014867;28;20639;-67
2022/12/14 00:04:32;;;;;;;24.33;12.57;;;;;;;;;;5014615;28;20233;-67
2022/12/14 00:06:57;;;;;;;21.70;12.30;;;;;;;;;;5015545;28;20257;-67
2022/12/14 00:09:22;;;;;;;24.70;13.43;;;;;;;;;;5015215;28;20212;-67
2022/12/14 00:11:48;;;;;;;22.77;12.50;;;;;;;;;;5014812;28;20278;-67
2022/12/14 00:14:13;;;;;;;23.33;12.90;;;;;;;;;;5008089;28;20251;-67
2022/12/14 00:16:38;;;;;;;23.37;12.73;;;;;;;;;;5009458;28;20213;-67
2022/12/14 00:19:04;;;;;;;23.93;12.57;;;;;;;;;;5014707;28;20240;-67
2022/12/14 00:21:30;;;;;;;23.20;12.43;;;;;;;;;;5015343;28;20864;-67
2022/12/14 00:23:56;;;;;;;23.93;12.37;;;;;;;;;;5014369;28;20307;-67
2022/12/14 00:26:22;;;;;;;23.23;12.63;;;;;;;;;;5013570;28;20267;-67
2022/12/14 00:28:48;;;;;;;23.27;12.97;;;;;;;;;;5014964;28;20295;-68
2022/12/14 00:31:13;;;;;;;22.40;12.37;;;;;;;;;;5009429;28;20303;-67
2022/12/14 00:33:39;;;;;;;20.97;12.40;;;;;;;;;;4995062;28;20610;-67
2022/12/14 00:36:04;;;;;;;22.10;12.70;;;;;;;;;;5004512;28;20223;-67
2022/12/14 00:38:30;;;;;;;22.57;12.50;;;;;;;;;;5014252;28;20219;-67
2022/12/14 00:40:55;;;;;;;24.10;12.23;;;;;;;;;;4997839;28;20316;-67
2022/12/14 00:43:21;;;;;;;22.70;12.23;;;;;;;;;;5008280;28;20217;-67
2022/12/14 00:45:46;;;;;;;21.73;11.53;;;;;;;;;;5000693;28;20205;-67
2022/12/14 00:48:11;;;;;;;23.80;12.17;;;;;;;;;;5014060;28;20343;-67
2022/12/14 00:50:37;;;;;;;22.77;11.63;;;;;;;;;;5014591;28;20231;-67
2022/12/14 00:53:02;;;;;;;20.13;10.97;;;;;;;;;;5013570;28;20239;-66
2022/12/14 00:55:27;;;;;;;20.40;11.83;;;;;;;;;;5013483;28;20232;-67
2022/12/14 00:57:52;;;;;;;20.73;12.20;;;;;;;;;;4994925;28;20252;-67
2022/12/14 01:00:18;;;;;;;21.77;11.87;;;;;;;;;;5006453;28;20694;-67
2022/12/14 01:02:43;;;;;;;20.60;11.77;;;;;;;;;;5014533;28;20212;-67
2022/12/14 01:05:08;;;;;;;21.07;11.53;;;;;;;;;;5013597;28;20233;-67
2022/12/14 01:07:33;;;;;;;23.03;12.13;;;;;;;;;;5013737;28;20214;-67
2022/12/14 01:09:59;;;;;;;21.87;11.93;;;;;;;;;;5014341;28;20228;-67
2022/12/14 01:12:24;;;;;;;19.70;11.90;;;;;;;;;;5012999;28;20258;-67
2022/12/14 01:14:49;;;;;;;22.93;11.87;;;;;;;;;;5013418;28;20212;-67
2022/12/14 01:17:14;;;;;;;20.70;12.13;;;;;;;;;;4994341;28;20581;-67
2022/12/14 01:19:40;;;;;;;21.63;11.40;;;;;;;;;;4994230;28;20209;-67
2022/12/14 01:22:05;;;;;;;21.27;11.53;;;;;;;;;;4993143;28;20595;-67
2022/12/14 01:24:30;;;;;;;21.90;11.80;;;;;;;;;;4994826;28;20264;-67
2022/12/14 01:26:56;;;;;;;20.30;11.53;;;;;;;;;;4993609;28;20580;-67
2022/12/14 01:29:21;;;;;;;20.70;11.13;;;;;;;;;;4993917;28;20655;-67
2022/12/14 01:31:46;;;;;;;17.60;10.10;;;;;;;;;;4994235;28;20700;-67
2022/12/14 01:34:12;;;;;;;20.43;11.37;;;;;;;;;;4993033;28;20217;-67
2022/12/14 01:36:37;;;;;;;19.67;10.77;;;;;;;;;;4994166;28;20209;-67
2022/12/14 01:39:04;;;;;;;18.50;10.73;;;;;;;;;;4993905;28;20224;-67
2022/12/14 01:41:30;;;;;;;21.00;11.27;;;;;;;;;;4993459;28;20232;-68
2022/12/14 01:43:56;;;;;;;20.77;10.50;;;;;;;;;;4993939;28;20256;-67
2022/12/14 01:46:25;;;;;;;20.53;10.90;;;;;;;;;;4993602;28;20263;-68
2022/12/14 01:48:50;;;;;;;18.63;10.27;;;;;;;;;;4993273;28;20217;-68
2022/12/14 01:51:16;;;;;;;19.57;10.37;;;;;;;;;;4993269;28;20220;-67
2022/12/14 01:53:41;;;;;;;22.00;10.23;;;;;;;;;;4993991;28;20213;-67
2022/12/14 01:56:06;;;;;;;19.43;10.33;;;;;;;;;;4999475;28;20239;-67
2022/12/14 01:58:32;;;;;;;19.43;10.23;;;;;;;;;;5013472;28;20626;-67
2022/12/14 02:00:57;;;;;;;17.70;9.60;;;;;;;;;;4994765;28;20229;-67
2022/12/14 02:03:24;;;;;;;20.50;10.53;;;;;;;;;;4991225;28;20296;-67
2022/12/14 02:05:51;;;;;;;19.10;10.03;;;;;;;;;;4992160;28;20236;-67
2022/12/14 02:08:17;;;;;;;20.50;10.37;;;;;;;;;;4992109;28;20272;-67
2022/12/14 02:10:42;;;;;;;22.73;11.00;;;;;;;;;;4992990;28;20205;-67
2022/12/14 02:13:10;;;;;;;18.23;10.43;;;;;;;;;;4991739;28;20239;-66
2022/12/14 02:15:35;;;;;;;22.27;12.30;;;;;;;;;;4993374;28;20205;-67
2022/12/14 02:18:01;;;;;;;23.43;12.13;;;;;;;;;;4992338;28;21028;-66
2022/12/14 02:20:27;;;;;;;21.47;11.23;;;;;;;;;;4992043;28;20225;-67
2022/12/14 02:23:05;;;;;;;21.13;10.83;;;;;;;;;;4993264;28;20212;-67
2022/12/14 02:25:43;;;;;;;19.93;11.27;;;;;;;;;;4991351;28;20205;-67
2022/12/14 02:28:08;;;;;;;22.00;11.30;;;;;;;;;;4992845;28;20307;-67
2022/12/14 02:30:36;;;;;;;20.60;11.47;;;;;;;;;;4992524;28;20299;-67
2022/12/14 02:33:10;;;;;;;20.37;10.63;;;;;;;;;;4992817;28;20587;-66
2022/12/14 02:35:37;;;;;;;21.60;11.20;;;;;;;;;;4993224;28;20684;-67
2022/12/14 02:38:13;;;;;;;21.90;10.87;;;;;;;;;;4990873;28;20224;-67
2022/12/14 02:40:40;;;;;;;18.87;10.47;;;;;;;;;;4991688;28;20574;-67
2022/12/14 02:43:10;;;;;;;19.53;10.37;;;;;;;;;;4991345;28;20224;-67
2022/12/14 02:45:39;;;;;;;20.73;10.57;;;;;;;;;;5010529;28;20351;-67
2022/12/14 02:48:06;;;;;;;19.33;10.53;;;;;;;;;;5012263;28;20546;-67
2022/12/14 02:50:33;;;;;;;19.43;9.73;;;;;;;;;;5012474;28;20216;-67
2022/12/14 02:53:18;;;;;;;20.03;11.03;;;;;;;;;;5010463;28;20220;-68
2022/12/14 02:55:44;;;;;;;20.30;10.20;;;;;;;;;;5003510;28;20680;-67
2022/12/14 02:58:13;;;;;;;20.30;10.40;;;;;;;;;;4991268;28;20625;-67
2022/12/14 03:00:38;;;;;;;20.90;10.93;;;;;;;;;;4998485;28;20251;-67
2022/12/14 03:03:04;;;;;;;20.13;10.40;;;;;;;;;;5002920;28;20283;-67
2022/12/14 03:05:29;;;;;;;19.40;10.27;;;;;;;;;;5002233;28;20240;-67
2022/12/14 03:07:55;;;;;;;18.40;10.30;;;;;;;;;;5012363;28;20231;-67
2022/12/14 03:10:25;;;;;;;18.87;10.57;;;;;;;;;;5012074;28;20212;-67
2022/12/14 03:12:53;;;;;;;18.90;10.70;;;;;;;;;;5011713;28;20206;-67
2022/12/14 03:15:19;;;;;;;20.13;10.57;;;;;;;;;;4999015;28;20205;-67
2022/12/14 03:17:45;;;;;;;18.17;10.47;;;;;;;;;;4993007;28;20216;-67
2022/12/14 03:20:10;;;;;;;20.10;9.93;;;;;;;;;;4991865;28;20240;-67
2022/12/14 03:22:38;;;;;;;20.93;10.70;;;;;;;;;;4991268;28;20217;-66
2022/12/14 03:25:07;;;;;;;17.20;9.43;;;;;;;;;;4992660;28;20263;-67
2022/12/14 03:27:34;;;;;;;16.30;9.70;;;;;;;;;;4981821;28;20264;-68
2022/12/14 03:30:02;;;;;;;20.87;10.23;;;;;;;;;;4983176;28;20253;-68
2022/12/14 03:32:28;;;;;;;17.63;10.07;;;;;;;;;;5000621;28;20210;-68
2022/12/14 03:34:56;;;;;;;18.47;9.70;;;;;;;;;;5000650;28;20228;-68
2022/12/14 03:37:24;;;;;;;17.00;9.93;;;;;;;;;;5002344;28;21067;-68
2022/12/14 03:39:49;;;;;;;17.73;9.93;;;;;;;;;;4988711;28;20237;-68
2022/12/14 03:42:21;;;;;;;14.40;8.37;;;;;;;;;;4996248;28;20324;-68
2022/12/14 03:44:51;;;;;;;17.83;9.63;;;;;;;;;;4984347;28;20264;-68
2022/12/14 03:47:16;;;;;;;14.87;8.63;;;;;;;;;;5003586;28;20306;-67
2022/12/14 03:49:42;;;;;;;16.77;9.17;;;;;;;;;;5005340;28;20296;-68
2022/12/14 03:52:12;;;;;;;16.90;9.47;;;;;;;;;;5005547;28;20220;-67
2022/12/14 03:54:43;;;;;;;19.33;10.23;;;;;;;;;;5003907;28;20209;-68
2022/12/14 03:57:19;;;;;;;16.00;8.60;;;;;;;;;;5000996;28;20213;-67
2022/12/14 03:59:49;;;;;;;17.33;9.37;;;;;;;;;;4992714;28;20240;-68
2022/12/14 04:02:18;;;;;;;15.97;8.97;;;;;;;;;;4979718;28;20260;-68
2022/12/14 04:04:44;;;;;;;17.73;9.30;;;;;;;;;;4995466;28;20232;-68
2022/12/14 04:07:11;;;;;;;18.43;9.90;;;;;;;;;;5000730;28;20212;-67
2022/12/14 04:09:41;;;;;;;18.27;9.10;;;;;;;;;;5004489;28;20262;-68
2022/12/14 04:20:30;;;;;;;16.73;8.47;;;;;;;;;;5004100;28;20259;-68
2022/12/14 04:23:01;;;;;;;14.97;7.70;;;;;;;;;;4995495;28;20223;-68
2022/12/14 04:31:01;;;;;;;15.67;8.30;;;;;;;;;;4982952;28;20267;-64
2022/12/14 04:33:45;;;;;;;17.53;8.70;;;;;;;;;;4984871;28;20213;-67
2022/12/14 04:36:10;;;;;;;14.60;8.13;;;;;;;;;;4978378;28;20704;-67
2022/12/14 04:38:36;;;;;;;14.10;8.00;;;;;;;;;;4965745;28;20213;-68
2022/12/14 04:41:03;;;;;;;14.40;7.73;;;;;;;;;;4982865;28;20731;-67
2022/12/14 04:43:28;;;;;;;16.30;8.00;;;;;;;;;;4981011;28;20744;-68
2022/12/14 04:45:56;;;;;;;14.30;7.67;;;;;;;;;;4977151;28;20699;-68
2022/12/14 04:48:23;;;;;;;14.90;8.13;;;;;;;;;;4976890;28;20217;-68
2022/12/14 04:50:51;;;;;;;18.67;9.03;;;;;;;;;;4975771;28;20264;-68
2022/12/14 04:53:17;;;;;;;14.67;7.70;;;;;;;;;;4981460;28;20615;-68
2022/12/14 04:55:45;;;;;;;14.63;7.93;;;;;;;;;;4965927;28;20300;-68
2022/12/14 04:58:12;;;;;;;15.80;8.10;;;;;;;;;;4982882;28;20221;-67
2022/12/14 05:00:39;;;;;;;14.90;8.20;;;;;;;;;;4980689;28;20230;-67
2022/12/14 05:03:04;;;;;;;15.33;8.20;;;;;;;;;;4982847;28;20605;-68
2022/12/14 05:05:38;;;;;;;15.63;8.03;;;;;;;;;;4984428;28;20240;-67
2022/12/14 05:08:08;;;;;;;15.63;8.07;;;;;;;;;;4975595;28;20300;-67
2022/12/14 05:10:36;;;;;;;14.97;7.70;;;;;;;;;;4975409;28;20676;-68
2022/12/14 05:13:04;;;;;;;13.17;7.57;;;;;;;;;;4973157;28;20225;-67
2022/12/14 05:15:33;;;;;;;16.63;7.90;;;;;;;;;;4973964;28;20224;-67
2022/12/14 05:18:03;;;;;;;14.27;7.57;;;;;;;;;;4973731;28;20234;-67
2022/12/14 05:20:28;;;;;;;14.10;7.60;;;;;;;;;;4985778;28;20248;-67
2022/12/14 05:22:53;;;;;;;15.87;7.47;;;;;;;;;;4994512;28;20248;-68
2022/12/14 05:25:18;;;;;;;17.13;8.10;;;;;;;;;;4989051;28;20248;-67
2022/12/14 05:27:45;;;;;;;13.83;7.33;;;;;;;;;;4981407;28;20217;-67
2022/12/14 05:30:10;;;;;;;13.53;7.53;;;;;;;;;;5003183;28;20693;-67
2022/12/14 05:32:35;;;;;;;14.70;7.77;;;;;;;;;;4987111;28;20235;-68
2022/12/14 05:35:01;;;;;;;13.10;6.77;;;;;;;;;;4983961;28;20229;-66
2022/12/14 05:37:26;;;;;;;14.13;7.37;;;;;;;;;;4985109;28;20679;-66
2022/12/14 05:39:52;;;;;;;16.07;7.50;;;;;;;;;;5003487;28;20379;-67
2022/12/14 05:42:18;;;;;;;16.47;7.60;;;;;;;;;;5000209;28;20275;-67
2022/12/14 05:44:43;;;;;;;14.20;7.57;;;;;;;;;;4979845;28;20291;-67
2022/12/14 05:47:09;;;;;;;14.27;7.40;;;;;;;;;;4975350;28;20229;-67
2022/12/14 05:49:34;;;;;;;15.47;7.57;;;;;;;;;;4997769;28;20734;-67
2022/12/14 05:52:00;;;;;;;15.43;7.77;;;;;;;;;;5003564;28;20217;-68
2022/12/14 05:54:25;;;;;;;16.00;7.20;;;;;;;;;;5002776;28;20251;-67
2022/12/14 05:56:51;;;;;;;15.17;7.50;;;;;;;;;;4991867;28;20228;-68
2022/12/14 05:59:16;;;;;;;15.57;7.83;;;;;;;;;;4998651;28;20204;-67
2022/12/14 06:01:42;;;;;;;14.17;7.23;;;;;;;;;;4983821;28;20213;-67
2022/12/14 06:04:07;;;;;;;13.93;7.37;;;;;;;;;;5002615;28;20270;-67
2022/12/14 06:06:33;;;;;;;16.43;7.97;;;;;;;;;;4996953;28;20874;-68
2022/12/14 06:08:59;;;;;;;14.77;7.43;;;;;;;;;;4994417;28;20679;-68
2022/12/14 06:11:24;;;;;;;13.90;7.03;;;;;;;;;;4994855;28;20219;-67
2022/12/14 06:13:49;;;;;;;13.33;7.13;;;;;;;;;;5002296;28;20267;-67
2022/12/14 06:16:15;;;;;;;13.97;7.40;;;;;;;;;;4983082;28;20221;-68
2022/12/14 06:18:42;;;;;;;16.17;7.47;;;;;;;;;;5002893;28;20217;-68
2022/12/14 06:21:08;;;;;;;14.67;7.57;;;;;;;;;;5002426;28;20589;-67
2022/12/14 06:23:33;;;;;;;13.80;7.33;;;;;;;;;;5002700;28;20224;-68
2022/12/14 06:25:58;;;;;;;15.00;7.47;;;;;;;;;;5002607;28;20691;-68
2022/12/14 06:28:24;;;;;;;14.40;7.90;;;;;;;;;;4998056;28;20264;-68
2022/12/14 06:30:49;;;;;;;16.67;7.93;;;;;;;;;;4976054;28;21062;-68
2022/12/14 06:33:14;;;;;;;19.50;8.80;;;;;;;;;;4975246;28;20715;-68
2022/12/14 06:35:44;;;;;;;14.97;7.57;;;;;;;;;;4998118;28;20973;-68
2022/12/14 06:38:10;;;;;;;17.87;8.97;;;;;;;;;;5001865;28;20922;-68
2022/12/14 06:40:35;;;;;;;17.17;8.57;;;;;;;;;;5003049;28;20308;-68
2022/12/14 06:43:00;;;;;;;19.23;9.20;;;;;;;;;;5000269;28;20266;-65
2022/12/14 06:45:27;;;;;;;18.73;9.93;;;;;;;;;;4983699;28;20213;-68
2022/12/14 06:47:52;;;;;;;22.17;9.73;;;;;;;;;;5002911;28;20216;-68
2022/12/14 06:50:17;;;;;;;21.40;10.60;;;;;;;;;;4999609;28;20921;-67
2022/12/14 06:52:42;;;;;;;20.43;8.87;;;;;;;;;;4981731;28;20307;-68
2022/12/14 06:55:08;;;;;;;18.67;9.50;;;;;;;;;;4975005;28;20220;-67
2022/12/14 06:57:33;;;;;;;19.13;9.93;;;;;;;;;;4977430;28;20304;-67
2022/12/14 06:59:59;;;;;;;20.57;10.60;;;;;;;;;;4983559;28;20221;-68
2022/12/14 07:02:24;;;;;;;18.87;9.90;;;;;;;;;;4982956;28;20220;-66
2022/12/14 07:04:49;;;;;;;18.93;9.90;;;;;;;;;;4982718;28;20237;-67
2022/12/14 07:07:15;;;;;;;18.73;10.17;;;;;;;;;;4983046;28;20216;-66
2022/12/14 07:09:40;;;;;;;18.87;10.13;;;;;;;;;;4983596;28;20351;-67
2022/12/14 07:12:05;;;;;;;20.77;10.10;;;;;;;;;;4986238;28;20308;-66
2022/12/14 07:14:31;;;;;;;21.47;10.00;;;;;;;;;;4993367;28;20216;-66
2022/12/14 07:16:56;;;;;;;19.27;10.00;;;;;;;;;;4979928;28;20630;-67
2022/12/14 07:19:21;;;;;;;18.53;9.33;;;;;;;;;;4978152;28;20213;-66
2022/12/14 07:21:46;;;;;;;18.33;9.73;;;;;;;;;;4986535;28;20590;-67
2022/12/14 07:24:12;;;;;;;21.23;10.17;;;;;;;;;;4987036;28;20312;-66
2022/12/14 07:26:37;;;;;;;21.67;10.97;;;;;;;;;;4991577;28;20262;-66
2022/12/14 07:29:02;;;;;;;19.13;9.77;;;;;;;;;;5006313;28;20213;-66
2022/12/14 07:31:28;;;;;;;18.40;10.13;;;;;;;;;;5006153;28;20311;-66
2022/12/14 07:33:54;;;;;;;18.73;9.77;;;;;;;;;;5004002;28;20208;-67
2022/12/14 07:36:19;;;;;;;19.33;10.17;;;;;;;;;;4990215;28;20224;-66
2022/12/14 07:38:45;;;;;;;20.57;9.67;;;;;;;;;;4994350;28;20209;-66
2022/12/14 07:41:11;;;;;;;17.70;8.73;;;;;;;;;;4995256;28;20642;-67
2022/12/14 07:43:37;;;;;;;20.73;11.93;;;;;;;;;;5002655;28;20435;-66
2022/12/14 07:46:03;;;;;;;19.35;11.75;;;;;;;;;;4996930;28;20427;-67
2022/12/14 07:48:28;;;;;;;21.10;10.90;;;;;;;;;;4998401;28;20430;-65
2022/12/14 07:50:53;;;;;;;20.37;10.50;;;;;;;;;;4990474;28;20593;-67
2022/12/14 07:53:19;;;;;;;22.07;11.23;;;;;;;;;;5002581;28;20212;-67
2022/12/14 07:55:44;;;;;;;30.47;14.20;;;;;;;;;;5002396;28;20225;-67
2022/12/14 07:58:10;;;;;;;21.87;9.97;;;;;;;;;;5004392;28;20740;-66
2022/12/14 08:00:35;;;;;;;17.43;9.20;;;;;;;;;;5003439;28;20249;-67
2022/12/14 08:03:00;;;;;;;19.03;9.67;;;;;;;;;;5004419;28;20747;-63
2022/12/14 08:05:26;;;;;;;24.70;13.73;;;;;;;;;;5005463;28;20700;-67
2022/12/14 08:07:51;;;;;;;24.53;12.27;;;;;;;;;;5003091;28;20209;-67
2022/12/14 08:10:16;;;;;;;20.57;10.70;;;;;;;;;;5005508;28;20633;-68
2022/12/14 08:12:42;;;;;;;18.93;9.70;;;;;;;;;;5004832;28;20634;-68
2022/12/14 08:15:07;;;;;;;18.80;9.27;;;;;;;;;;5005334;28;20572;-67
2022/12/14 08:17:32;;;;;;;20.80;9.47;;;;;;;;;;5006360;28;20205;-68
2022/12/14 08:19:58;;;;;;;21.77;10.93;;;;;;;;;;5004130;28;20305;-69
2022/12/14 08:22:23;;;;;;;22.60;10.23;;;;;;;;;;5003166;28;20278;-71
2022/12/14 08:24:48;;;;;;;19.67;9.80;;;;;;;;;;5005912;28;20706;-68
2022/12/14 08:27:13;;;;;;;22.03;11.10;;;;;;;;;;5003820;28;20209;-67
2022/12/14 08:29:39;;;;;;;20.80;10.63;;;;;;;;;;5003116;28;20213;-67
2022/12/14 08:32:04;;;;;;;22.70;11.70;;;;;;;;;;5003352;28;20245;-66
2022/12/14 08:34:29;;;;;;;23.87;11.93;;;;;;;;;;5001401;28;20216;-67
2022/12/14 08:36:54;;;;;;;21.60;11.33;;;;;;;;;;5005730;28;20200;-68
2022/12/14 08:39:20;;;;;;;23.93;12.00;;;;;;;;;;5015541;28;20212;-66
2022/12/14 08:41:45;;;;;;;25.27;11.40;;;;;;;;;;5003013;28;20225;-67
2022/12/14 08:44:12;;;;;;;24.17;12.10;;;;;;;;;;5003937;28;20614;-66
2022/12/14 08:46:38;;;;;;;22.87;12.00;;;;;;;;;;5001765;28;20209;-66
2022/12/14 08:49:03;;;;;;;23.57;12.87;;;;;;;;;;5000245;28;20213;-65
2022/12/14 08:51:28;;;;;;;21.80;11.67;;;;;;;;;;4994496;28;20270;-66
2022/12/14 08:53:54;;;;;;;23.13;12.73;;;;;;;;;;4996057;28;20205;-66
2022/12/14 08:56:20;;;;;;;27.47;13.60;;;;;;;;;;5007614;28;20582;-66
2022/12/14 08:58:45;;;;;;;26.13;12.40;;;;;;;;;;5013093;28;20586;-66
2022/12/14 09:01:12;;;;;;;38.87;18.43;;;;;;;;;;4994395;28;20233;-66
2022/12/14 09:03:39;;;;;;;28.53;16.83;;;;;;;;;;4994805;28;20209;-66
2022/12/14 09:06:05;;;;;;;24.13;13.27;;;;;;;;;;4993537;28;20241;-65
2022/12/14 09:08:31;;;;;;;28.13;16.20;;;;;;;;;;4994568;28;20229;-66
2022/12/14 09:10:57;;;;;;;25.83;12.80;;;;;;;;;;4994768;28;20303;-66
2022/12/14 09:13:22;;;;;;;26.13;13.17;;;;;;;;;;4993552;28;20731;-66
2022/12/14 09:15:58;;;;;;;28.60;15.00;;;;;;;;;;4994244;28;20212;-66
2022/12/14 09:18:23;;;;;;;28.60;14.60;;;;;;;;;;4993337;28;20208;-66
2022/12/14 09:20:50;;;;;;;70.20;33.83;;;;;;;;;;4994325;28;20213;-66
2022/12/14 09:23:15;;;;;;;26.37;13.57;;;;;;;;;;4993650;28;20716;-66
2022/12/14 09:25:40;;;;;;;24.13;12.00;;;;;;;;;;4993646;28;20205;-66
2022/12/14 09:28:06;;;;;;;32.97;18.50;;;;;;;;;;4993881;28;20225;-65
2022/12/14 09:30:31;;;;;;;23.43;13.00;;;;;;;;;;4994010;28;20289;-66
2022/12/14 09:32:56;;;;;;;29.43;15.17;;;;;;;;;;4992779;28;20217;-66
2022/12/14 09:35:22;;;;;;;54.00;27.90;;;;;;;;;;4993957;28;20201;-66
2022/12/14 09:37:47;;;;;;;33.77;18.20;;;;;;;;;;4997200;28;20219;-64
2022/12/14 09:40:12;;;;;;;30.13;15.87;;;;;;;;;;4996494;28;20220;-66
2022/12/14 09:42:47;;;;;;;24.33;12.27;;;;;;;;;;4993821;28;20229;-65
2022/12/14 09:45:16;;;;;;;19.90;11.03;;;;;;;;;;4993459;28;20208;-65
2022/12/14 09:47:42;;;;;;;23.73;11.87;;;;;;;;;;4993817;28;20271;-65
2022/12/14 09:50:11;;;;;;;22.67;11.87;;;;;;;;;;4998439;28;20255;-65
2022/12/14 09:52:40;;;;;;;19.20;10.50;;;;;;;;;;5008981;28;20212;-65
2022/12/14 09:55:15;;;;;;;20.00;10.63;;;;;;;;;;4995379;28;20213;-65
2022/12/14 09:57:40;;;;;;;22.80;11.73;;;;;;;;;;5011621;28;20606;-65
2022/12/14 10:00:13;;;;;;;20.17;10.57;;;;;;;;;;5001371;28;20217;-63
2022/12/14 10:02:42;;;;;;;20.50;10.50;;;;;;;;;;4992826;28;20304;-67
2022/12/14 10:05:17;;;;;;;20.70;11.20;;;;;;;;;;4991940;28;20593;-66
2022/12/14 10:07:46;;;;;;;21.33;11.10;;;;;;;;;;4992556;28;20303;-66
2022/12/14 10:10:18;;;;;;;21.20;11.50;;;;;;;;;;4993350;28;20244;-66
2022/12/14 10:12:55;;;;;;;20.63;11.40;;;;;;;;;;4992196;28;20287;-66
2022/12/14 10:15:23;;;;;;;22.67;10.80;;;;;;;;;;4994170;28;20279;-66
2022/12/14 10:18:13;;;;;;;21.67;12.20;;;;;;;;;;5011884;28;20212;-67
2022/12/14 10:20:47;;;;;;;24.40;12.67;;;;;;;;;;5012509;28;20224;-66
2022/12/14 10:23:13;;;;;;;19.87;10.77;;;;;;;;;;5010138;28;20620;-66
2022/12/14 10:25:39;;;;;;;21.60;10.97;;;;;;;;;;5011728;28;20248;-66
2022/12/14 10:28:07;;;;;;;18.83;10.60;;;;;;;;;;5005065;28;20247;-65
2022/12/14 10:30:33;;;;;;;19.30;11.00;;;;;;;;;;5004343;28;20217;-66
2022/12/14 10:33:04;;;;;;;21.20;10.90;;;;;;;;;;5011419;28;20219;-66
2022/12/14 10:35:49;;;;;;;19.97;11.10;;;;;;;;;;5010408;28;20220;-67
2022/12/14 10:38:24;;;;;;;19.37;10.33;;;;;;;;;;5012143;28;20212;-66
2022/12/14 10:40:50;;;;;;;18.27;9.73;;;;;;;;;;5012644;28;20278;-67
2022/12/14 10:43:23;;;;;;;20.00;10.87;;;;;;;;;;5010178;28;20263;-67
2022/12/14 10:45:53;;;;;;;20.13;11.03;;;;;;;;;;5012337;28;20253;-67
2022/12/14 10:48:18;;;;;;;18.90;10.57;;;;;;;;;;5002483;28;20228;-67
2022/12/14 10:50:48;;;;;;;18.20;10.53;;;;;;;;;;4992295;28;20244;-67
2022/12/14 10:53:14;;;;;;;17.17;10.20;;;;;;;;;;4990928;28;20260;-67
2022/12/14 10:55:40;;;;;;;18.63;10.20;;;;;;;;;;4994829;28;20695;-67
2022/12/14 10:58:05;;;;;;;19.30;10.50;;;;;;;;;;5010186;28;20244;-66
2022/12/14 11:00:30;;;;;;;15.97;9.27;;;;;;;;;;4997683;28;20239;-67
2022/12/14 11:02:56;;;;;;;17.20;9.10;;;;;;;;;;4992531;28;20236;-68
2022/12/14 11:05:26;;;;;;;18.07;9.47;;;;;;;;;;4990330;28;20236;-67
2022/12/14 11:07:51;;;;;;;18.13;9.80;;;;;;;;;;4991355;28;20613;-67
2022/12/14 11:10:17;;;;;;;15.10;8.53;;;;;;;;;;4992552;28;20276;-67
2022/12/14 11:12:56;;;;;;;17.53;9.03;;;;;;;;;;4992049;28;20267;-67
2022/12/14 11:15:23;;;;;;;18.53;9.53;;;;;;;;;;4992349;28;20216;-67
2022/12/14 11:17:50;;;;;;;15.80;8.70;;;;;;;;;;4991817;28;20219;-67
2022/12/14 11:20:18;;;;;;;17.10;8.97;;;;;;;;;;4990861;28;20748;-67
2022/12/14 11:22:44;;;;;;;17.43;8.73;;;;;;;;;;4992448;28;20563;-67
2022/12/14 11:25:29;;;;;;;18.93;10.47;;;;;;;;;;4991448;28;20216;-67
2022/12/14 11:27:55;;;;;;;21.83;11.70;;;;;;;;;;4992782;28;20241;-68
2022/12/14 11:30:20;;;;;;;23.70;12.43;;;;;;;;;;4992242;28;20270;-68
2022/12/14 11:32:46;;;;;;;21.10;11.90;;;;;;;;;;4991779;28;20212;-68
2022/12/14 11:35:14;;;;;;;25.20;12.10;;;;;;;;;;4990949;28;20316;-67
2022/12/14 11:37:39;;;;;;;25.23;13.07;;;;;;;;;;4992474;28;20209;-67
2022/12/14 11:40:05;;;;;;;20.23;11.57;;;;;;;;;;4990278;28;20316;-67
2022/12/14 11:42:30;;;;;;;27.80;15.17;;;;;;;;;;4991312;28;20233;-67
2022/12/14 11:45:15;;;;;;;97.60;38.53;;;;;;;;;;4992558;28;20689;-69
2022/12/14 11:47:40;;;;;;;49.57;23.57;;;;;;;;;;4993302;28;20208;-68
2022/12/14 11:50:20;;;;;;;21.73;12.63;;;;;;;;;;4991858;28;20241;-66
2022/12/14 11:52:45;;;;;;;35.07;16.83;;;;;;;;;;4992359;28;20267;-68
2022/12/14 11:55:13;;;;;;;21.50;12.60;;;;;;;;;;4981845;28;20695;-67
2022/12/14 11:57:50;;;;;;;22.73;12.97;;;;;;;;;;5008180;28;20204;-68
2022/12/14 12:00:20;;;;;;;22.00;11.23;;;;;;;;;;5001719;28;20229;-68
2022/12/14 12:02:47;;;;;;;23.87;12.70;;;;;;;;;;4995789;28;20217;-68
2022/12/14 12:05:13;;;;;;;22.10;12.67;;;;;;;;;;4995043;28;20249;-68
2022/12/14 12:07:41;;;;;;;20.93;11.83;;;;;;;;;;4993618;28;20256;-68
2022/12/14 12:10:12;;;;;;;21.93;12.37;;;;;;;;;;4995425;28;20236;-67
2022/12/14 12:12:37;;;;;;;21.33;12.10;;;;;;;;;;4995813;28;20205;-68
2022/12/14 12:15:03;;;;;;;21.03;12.43;;;;;;;;;;4994594;28;20213;-68
2022/12/14 12:17:38;;;;;;;22.13;12.57;;;;;;;;;;4994650;28;20205;-68
2022/12/14 12:20:10;;;;;;;20.03;11.47;;;;;;;;;;4993921;28;20261;-68
2022/12/14 12:22:35;;;;;;;23.30;12.50;;;;;;;;;;4993351;28;20256;-68
2022/12/14 12:25:03;;;;;;;23.00;12.80;;;;;;;;;;4993826;28;20237;-67
2022/12/14 12:27:29;;;;;;;21.13;12.73;;;;;;;;;;4994221;28;20260;-68
2022/12/14 12:29:56;;;;;;;20.13;11.77;;;;;;;;;;4994569;28;20209;-69
2022/12/14 12:32:30;;;;;;;20.60;11.87;;;;;;;;;;4993972;28;20205;-69
2022/12/14 12:34:56;;;;;;;18.40;11.30;;;;;;;;;;4995111;28;20667;-69
2022/12/14 12:37:28;;;;;;;20.60;12.23;;;;;;;;;;4993180;28;20217;-69
2022/12/14 12:39:56;;;;;;;20.63;12.17;;;;;;;;;;4995351;28;20246;-69
2022/12/14 12:42:23;;;;;;;20.20;11.77;;;;;;;;;;4994332;28;20266;-68
2022/12/14 12:44:54;;;;;;;18.63;11.50;;;;;;;;;;5007664;28;20208;-68
2022/12/14 12:47:27;;;;;;;20.90;12.30;;;;;;;;;;4992114;28;20209;-69
2022/12/14 12:49:52;;;;;;;20.13;11.60;;;;;;;;;;4994023;28;20232;-69
2022/12/14 12:52:20;;;;;;;19.07;11.33;;;;;;;;;;4993600;28;20685;-69
2022/12/14 12:54:54;;;;;;;20.43;11.70;;;;;;;;;;4994847;28;20361;-69
2022/12/14 12:57:20;;;;;;;19.70;11.23;;;;;;;;;;4999850;28;20746;-69
2022/12/14 12:59:46;;;;;;;20.53;11.97;;;;;;;;;;5002328;28;20304;-69
2022/12/14 13:02:27;;;;;;;21.03;11.90;;;;;;;;;;4993192;28;20229;-70
2022/12/14 13:04:53;;;;;;;19.93;11.47;;;;;;;;;;4992484;28;20694;-69
2022/12/14 13:07:20;;;;;;;20.03;11.20;;;;;;;;;;4975163;28;20230;-69
2022/12/14 13:09:47;;;;;;;20.83;11.27;;;;;;;;;;4973694;28;20213;-68
2022/12/14 13:12:21;;;;;;;17.03;10.13;;;;;;;;;;4972653;28;20229;-68
2022/12/14 13:14:46;;;;;;;18.73;11.17;;;;;;;;;;4982518;28;20218;-69
2022/12/14 13:17:18;;;;;;;19.73;11.70;;;;;;;;;;4993037;28;20565;-69
2022/12/14 13:19:44;;;;;;;21.67;11.20;;;;;;;;;;4993215;28;20563;-69
2022/12/14 13:22:10;;;;;;;21.13;11.20;;;;;;;;;;4992641;28;20229;-69
2022/12/14 13:24:35;;;;;;;18.90;11.10;;;;;;;;;;4992675;28;20213;-69
2022/12/14 13:27:22;;;;;;;18.93;11.03;;;;;;;;;;4993601;28;20219;-63
2022/12/14 13:29:50;;;;;;;18.63;11.40;;;;;;;;;;4993235;28;20213;-70
2022/12/14 13:32:19;;;;;;;22.97;12.23;;;;;;;;;;4985519;28;20256;-69
2022/12/14 13:34:45;;;;;;;22.50;10.50;;;;;;;;;;4994134;28;20221;-69
2022/12/14 13:37:16;;;;;;;19.40;11.40;;;;;;;;;;4993677;28;20255;-69
2022/12/14 13:39:50;;;;;;;18.93;10.80;;;;;;;;;;4993545;28;20237;-70
2022/12/14 13:42:25;;;;;;;19.87;11.40;;;;;;;;;;4991846;28;20631;-69
2022/12/14 13:44:58;;;;;;;20.17;11.33;;;;;;;;;;4992794;28;20209;-69
2022/12/14 13:47:30;;;;;;;20.43;10.57;;;;;;;;;;4992857;28;20622;-69
2022/12/14 13:49:57;;;;;;;20.00;11.70;;;;;;;;;;4993756;28;20228;-69
2022/12/14 13:52:26;;;;;;;18.80;11.53;;;;;;;;;;4993298;28;20681;-69
2022/12/14 13:54:51;;;;;;;18.97;10.97;;;;;;;;;;4992530;28;20288;-67
2022/12/14 13:57:20;;;;;;;19.45;11.50;;;;;;;;;;5004559;28;20288;-68
2022/12/14 13:59:48;;;;;;;18.57;11.50;;;;;;;;;;5001465;28;20238;-68
2022/12/14 14:02:25;;;;;;;21.30;11.50;;;;;;;;;;4995287;28;20688;-68
2022/12/14 14:04:50;;;;;;;19.00;11.13;;;;;;;;;;4993363;28;20705;-67
2022/12/14 14:07:37;;;;;;;19.60;11.17;;;;;;;;;;4990882;28;20220;-67
2022/12/14 14:10:03;;;;;;;19.67;11.47;;;;;;;;;;4992850;28;20217;-67
2022/12/14 14:12:30;;;;;;;20.00;11.20;;;;;;;;;;4993596;28;20201;-68
2022/12/14 14:15:07;;;;;;;18.63;11.47;;;;;;;;;;4992600;28;20240;-67
2022/12/14 14:17:34;;;;;;;20.53;11.07;;;;;;;;;;4973785;28;20215;-67
2022/12/14 14:20:00;;;;;;;18.00;10.23;;;;;;;;;;4973747;28;20222;-67
2022/12/14 14:22:26;;;;;;;18.13;10.63;;;;;;;;;;4971449;28;21162;-67
2022/12/14 14:24:55;;;;;;;19.40;10.93;;;;;;;;;;4973763;28;20209;-68
2022/12/14 14:27:23;;;;;;;19.33;11.47;;;;;;;;;;4973614;28;20218;-67
2022/12/14 14:29:49;;;;;;;22.40;12.10;;;;;;;;;;4971866;28;20213;-67
2022/12/14 14:32:31;;;;;;;21.03;12.00;;;;;;;;;;4973516;28;20229;-67
2022/12/14 14:34:56;;;;;;;20.53;10.93;;;;;;;;;;4973145;28;20593;-68
2022/12/14 14:37:24;;;;;;;19.03;12.17;;;;;;;;;;4973378;28;20657;-68